UAL1170 KLAX-PHNL
Flight info
| Callsign | UAL1170 |
|---|---|
| Flight time | 3h 13m |
| Altitude | 34000 |
| Route | SUMMR2 DINTY DUETS 3335N12855W DADIE R576 DENNS MAGGI3 |
| Aircraft | B77W/H-SDE1E2E3FGHIJ2J3J4J5M1RWXY/LB1D1 |
Departure
| Time | 2026-04-21 22:12 |
|---|---|
| Airport | Los Angeles International Airport (KLAX) |
Arrival
| Time | 2026-04-22 01:25 |
|---|---|
| Airport | Daniel K. Inouye International Airport (PHNL) |
| Time | Latitude | Longitude | Altitude | Speed | Heading |
|---|---|---|---|---|---|
| 2026-04-21 21:25 | 33.94025 | -118.39994 | 98 ft | 0 kts | 49° |
| 2026-04-21 21:25 | 33.94032 | -118.39986 | 99 ft | 0 kts | 49° |
| 2026-04-21 21:55 | 33.94031 | -118.39987 | 98 ft | 2 kts | 49° |
| 2026-04-21 21:55 | 33.94015 | -118.40011 | 98 ft | 4 kts | 49° |
| 2026-04-21 21:55 | 33.94000 | -118.40031 | 98 ft | 4 kts | 65° |
| 2026-04-21 21:55 | 33.93999 | -118.40054 | 98 ft | 4 kts | 142° |
| 2026-04-21 21:56 | 33.94022 | -118.40065 | 98 ft | 4 kts | 173° |
| 2026-04-21 21:56 | 33.94049 | -118.40069 | 99 ft | 4 kts | 173° |
| 2026-04-21 21:56 | 33.94060 | -118.40071 | 98 ft | 0 kts | 173° |
| 2026-04-21 22:02 | 33.94058 | -118.40071 | 98 ft | 1 kts | 173° |
| 2026-04-21 22:02 | 33.94038 | -118.40068 | 100 ft | 5 kts | 173° |
| 2026-04-21 22:03 | 33.93995 | -118.40064 | 100 ft | 8 kts | 183° |
| 2026-04-21 22:03 | 33.93956 | -118.40109 | 100 ft | 9 kts | 249° |
| 2026-04-21 22:03 | 33.93942 | -118.40198 | 98 ft | 13 kts | 262° |
| 2026-04-21 22:03 | 33.93929 | -118.40316 | 98 ft | 16 kts | 263° |
| 2026-04-21 22:04 | 33.93916 | -118.40457 | 98 ft | 18 kts | 263° |
| 2026-04-21 22:04 | 33.93899 | -118.40619 | 101 ft | 19 kts | 263° |
| 2026-04-21 22:04 | 33.93887 | -118.40739 | 98 ft | 14 kts | 263° |
| 2026-04-21 22:04 | 33.93873 | -118.40863 | 98 ft | 16 kts | 262° |
| 2026-04-21 22:05 | 33.93857 | -118.41009 | 98 ft | 19 kts | 263° |
| 2026-04-21 22:05 | 33.93844 | -118.41136 | 98 ft | 10 kts | 264° |
| 2026-04-21 22:05 | 33.93842 | -118.41223 | 98 ft | 10 kts | 284° |
| 2026-04-21 22:05 | 33.93906 | -118.41265 | 99 ft | 12 kts | 350° |
| 2026-04-21 22:06 | 33.93999 | -118.41281 | 99 ft | 15 kts | 353° |
| 2026-04-21 22:06 | 33.94110 | -118.41298 | 99 ft | 17 kts | 353° |
| 2026-04-21 22:06 | 33.94239 | -118.41317 | 99 ft | 20 kts | 353° |
| 2026-04-21 22:06 | 33.94384 | -118.41338 | 98 ft | 22 kts | 353° |
| 2026-04-21 22:07 | 33.94541 | -118.41361 | 99 ft | 24 kts | 353° |
| 2026-04-21 22:07 | 33.94653 | -118.41377 | 99 ft | 13 kts | 353° |
| 2026-04-21 22:07 | 33.94730 | -118.41388 | 98 ft | 7 kts | 353° |
| 2026-04-21 22:07 | 33.94769 | -118.41371 | 101 ft | 6 kts | 48° |
| 2026-04-21 22:08 | 33.94786 | -118.41315 | 100 ft | 8 kts | 77° |
| 2026-04-21 22:08 | 33.94798 | -118.41226 | 101 ft | 13 kts | 83° |
| 2026-04-21 22:08 | 33.94812 | -118.41092 | 99 ft | 19 kts | 83° |
| 2026-04-21 22:08 | 33.94830 | -118.40914 | 102 ft | 24 kts | 83° |
| 2026-04-21 22:09 | 33.94852 | -118.40700 | 99 ft | 26 kts | 83° |
| 2026-04-21 22:09 | 33.94875 | -118.40486 | 102 ft | 26 kts | 83° |
| 2026-04-21 22:09 | 33.94896 | -118.40273 | 100 ft | 26 kts | 83° |
| 2026-04-21 22:09 | 33.94913 | -118.40100 | 100 ft | 14 kts | 83° |
| 2026-04-21 22:10 | 33.94924 | -118.39999 | 98 ft | 11 kts | 81° |
| 2026-04-21 22:10 | 33.94966 | -118.39926 | 101 ft | 11 kts | 20° |
| 2026-04-21 22:10 | 33.95030 | -118.39940 | 98 ft | 7 kts | 300° |
| 2026-04-21 22:10 | 33.95035 | -118.39997 | 101 ft | 7 kts | 266° |
| 2026-04-21 22:11 | 33.95024 | -118.40125 | 101 ft | 29 kts | 264° |
| 2026-04-21 22:11 | 33.94985 | -118.40492 | 101 ft | 58 kts | 262° |
| 2026-04-21 22:11 | 33.94923 | -118.41071 | 102 ft | 81 kts | 263° |
| 2026-04-21 22:11 | 33.94816 | -118.42089 | 104 ft | 174 kts | 263° |
| 2026-04-21 22:12 | 33.94675 | -118.43727 | 1080 ft | 196 kts | 261° |
| 2026-04-21 22:12 | 33.94523 | -118.45298 | 2151 ft | 186 kts | 260° |
| 2026-04-21 22:12 | 33.94360 | -118.46814 | 2771 ft | 185 kts | 259° |
| 2026-04-21 22:12 | 33.94269 | -118.48480 | 2936 ft | 212 kts | 265° |
| 2026-04-21 22:13 | 33.94221 | -118.50320 | 3245 ft | 230 kts | 265° |
| 2026-04-21 22:13 | 33.94140 | -118.52328 | 3666 ft | 244 kts | 262° |
| 2026-04-21 22:13 | 33.93972 | -118.54385 | 4439 ft | 247 kts | 262° |
| 2026-04-21 22:13 | 33.93800 | -118.56451 | 4965 ft | 248 kts | 261° |
| 2026-04-21 22:14 | 33.93630 | -118.58525 | 4999 ft | 256 kts | 262° |
| 2026-04-21 22:14 | 33.93460 | -118.60661 | 5007 ft | 255 kts | 262° |
| 2026-04-21 22:14 | 33.93293 | -118.62777 | 5004 ft | 252 kts | 262° |
| 2026-04-21 22:14 | 33.93128 | -118.64873 | 5040 ft | 250 kts | 262° |
| 2026-04-21 22:15 | 33.92965 | -118.66984 | 5281 ft | 256 kts | 262° |
| 2026-04-21 22:15 | 33.92803 | -118.69083 | 6514 ft | 250 kts | 262° |
| 2026-04-21 22:15 | 33.92641 | -118.71171 | 7539 ft | 251 kts | 261° |
| 2026-04-21 22:15 | 33.92475 | -118.73283 | 8433 ft | 255 kts | 261° |
| 2026-04-21 22:16 | 33.92309 | -118.75420 | 9401 ft | 258 kts | 261° |
| 2026-04-21 22:16 | 33.92139 | -118.77579 | 10327 ft | 261 kts | 261° |
| 2026-04-21 22:16 | 33.91962 | -118.79826 | 10792 ft | 283 kts | 261° |
| 2026-04-21 22:16 | 33.91766 | -118.82290 | 10986 ft | 311 kts | 262° |
| 2026-04-21 22:17 | 33.91639 | -118.85011 | 11236 ft | 336 kts | 268° |
| 2026-04-21 22:17 | 33.91736 | -118.87858 | 11937 ft | 345 kts | 270° |
| 2026-04-21 22:17 | 33.91879 | -118.90748 | 12944 ft | 346 kts | 270° |
| 2026-04-21 22:17 | 33.91997 | -118.93643 | 14064 ft | 345 kts | 269° |
| 2026-04-21 22:18 | 33.92091 | -118.96524 | 15046 ft | 345 kts | 269° |
| 2026-04-21 22:18 | 33.92186 | -118.99432 | 15902 ft | 346 kts | 271° |
| 2026-04-21 22:18 | 33.92691 | -119.02306 | 16599 ft | 360 kts | 285° |
| 2026-04-21 22:18 | 33.93861 | -119.05026 | 17480 ft | 370 kts | 296° |
| 2026-04-21 22:19 | 33.95260 | -119.07636 | 18408 ft | 372 kts | 296° |
| 2026-04-21 22:19 | 33.96644 | -119.10233 | 19157 ft | 375 kts | 295° |
| 2026-04-21 22:19 | 33.98042 | -119.12907 | 19855 ft | 379 kts | 295° |
| 2026-04-21 22:19 | 33.99445 | -119.15622 | 20562 ft | 383 kts | 294° |
| 2026-04-21 22:20 | 34.00940 | -119.18306 | 21178 ft | 394 kts | 301° |
| 2026-04-21 22:20 | 34.03015 | -119.20593 | 21791 ft | 412 kts | 315° |
| 2026-04-21 22:20 | 34.05415 | -119.22568 | 22319 ft | 421 kts | 315° |
| 2026-04-21 22:20 | 34.07834 | -119.24582 | 22964 ft | 424 kts | 315° |
| 2026-04-21 22:21 | 34.10264 | -119.26630 | 23723 ft | 424 kts | 315° |
| 2026-04-21 22:21 | 34.12682 | -119.28688 | 24340 ft | 426 kts | 315° |
| 2026-04-21 22:21 | 34.15109 | -119.30770 | 24839 ft | 431 kts | 314° |
| 2026-04-21 22:21 | 34.17563 | -119.32886 | 25303 ft | 436 kts | 314° |
| 2026-04-21 22:22 | 34.20008 | -119.34996 | 25795 ft | 440 kts | 314° |
| 2026-04-21 22:22 | 34.22541 | -119.37182 | 26340 ft | 443 kts | 314° |
| 2026-04-21 22:22 | 34.25022 | -119.39325 | 26845 ft | 446 kts | 314° |
| 2026-04-21 22:22 | 34.27561 | -119.41519 | 27300 ft | 450 kts | 314° |
| 2026-04-21 22:23 | 34.30121 | -119.43732 | 27740 ft | 454 kts | 314° |
| 2026-04-21 22:23 | 34.32701 | -119.45963 | 28159 ft | 458 kts | 314° |
| 2026-04-21 22:23 | 34.35304 | -119.48218 | 28594 ft | 461 kts | 313° |
| 2026-04-21 22:23 | 34.37696 | -119.50697 | 28815 ft | 445 kts | 300° |
| 2026-04-21 22:24 | 34.39295 | -119.53802 | 29150 ft | 427 kts | 284° |
| 2026-04-21 22:24 | 34.40207 | -119.57176 | 29684 ft | 417 kts | 276° |
| 2026-04-21 22:24 | 34.40652 | -119.60610 | 30120 ft | 410 kts | 267° |
| 2026-04-21 22:24 | 34.40517 | -119.64029 | 30337 ft | 407 kts | 261° |
| 2026-04-21 22:25 | 34.40248 | -119.67418 | 30528 ft | 411 kts | 261° |
| 2026-04-21 22:25 | 34.39962 | -119.70868 | 30793 ft | 412 kts | 261° |
| 2026-04-21 22:25 | 34.39683 | -119.74328 | 31103 ft | 413 kts | 261° |
| 2026-04-21 22:25 | 34.39413 | -119.77813 | 31373 ft | 414 kts | 261° |
| 2026-04-21 22:26 | 34.39153 | -119.81295 | 31599 ft | 416 kts | 261° |
| 2026-04-21 22:26 | 34.38897 | -119.84797 | 31834 ft | 417 kts | 262° |
| 2026-04-21 22:26 | 34.38645 | -119.88297 | 32071 ft | 418 kts | 262° |
| 2026-04-21 22:26 | 34.38394 | -119.91806 | 32296 ft | 418 kts | 262° |
| 2026-04-21 22:27 | 34.38144 | -119.95306 | 32558 ft | 417 kts | 262° |
| 2026-04-21 22:27 | 34.37892 | -119.98806 | 32854 ft | 416 kts | 262° |
| 2026-04-21 22:27 | 34.37643 | -120.02253 | 33099 ft | 416 kts | 262° |
| 2026-04-21 22:27 | 34.37389 | -120.05743 | 33361 ft | 415 kts | 262° |
| 2026-04-21 22:28 | 34.37136 | -120.09218 | 33620 ft | 414 kts | 262° |
| 2026-04-21 22:28 | 34.36881 | -120.12692 | 33905 ft | 413 kts | 262° |
| 2026-04-21 22:28 | 34.36625 | -120.16162 | 34019 ft | 415 kts | 262° |
| 2026-04-21 22:29 | 34.36109 | -120.23125 | 34107 ft | 415 kts | 262° |
| 2026-04-21 22:29 | 34.35590 | -120.30093 | 34102 ft | 414 kts | 262° |
| 2026-04-21 22:30 | 34.35076 | -120.36944 | 34090 ft | 408 kts | 262° |
| 2026-04-21 22:30 | 34.34553 | -120.43822 | 34156 ft | 413 kts | 262° |
| 2026-04-21 22:31 | 34.32958 | -120.50412 | 34098 ft | 408 kts | 245° |
| 2026-04-21 22:31 | 34.30428 | -120.56582 | 34102 ft | 411 kts | 246° |
| 2026-04-21 22:32 | 34.27936 | -120.62827 | 34091 ft | 411 kts | 246° |
| 2026-04-21 22:32 | 34.25486 | -120.69005 | 34091 ft | 409 kts | 246° |
| 2026-04-21 22:33 | 34.23033 | -120.75192 | 34090 ft | 408 kts | 246° |
| 2026-04-21 22:33 | 34.20574 | -120.81382 | 34090 ft | 408 kts | 246° |
| 2026-04-21 22:34 | 34.18111 | -120.87567 | 34088 ft | 409 kts | 246° |
| 2026-04-21 22:34 | 34.15639 | -120.93767 | 34088 ft | 409 kts | 246° |
| 2026-04-21 22:35 | 34.13163 | -120.99961 | 34079 ft | 411 kts | 246° |
| 2026-04-21 22:35 | 34.10685 | -121.06151 | 34084 ft | 413 kts | 246° |
| 2026-04-21 22:36 | 34.06912 | -121.15553 | 34080 ft | 416 kts | 246° |
| 2026-04-21 22:36 | 34.04382 | -121.21844 | 34083 ft | 417 kts | 246° |
| 2026-04-21 22:37 | 34.01839 | -121.28154 | 34070 ft | 418 kts | 246° |
| 2026-04-21 22:37 | 33.99294 | -121.34456 | 34080 ft | 418 kts | 246° |
| 2026-04-21 22:38 | 33.96761 | -121.40719 | 34081 ft | 418 kts | 246° |
| 2026-04-21 22:38 | 33.94203 | -121.47031 | 34081 ft | 418 kts | 246° |
| 2026-04-21 22:39 | 33.91651 | -121.53317 | 34083 ft | 418 kts | 246° |
| 2026-04-21 22:39 | 33.89095 | -121.59600 | 34085 ft | 418 kts | 246° |
| 2026-04-21 22:40 | 33.86534 | -121.65884 | 34081 ft | 418 kts | 246° |
| 2026-04-21 22:40 | 33.83986 | -121.72127 | 34082 ft | 418 kts | 246° |
| 2026-04-21 22:41 | 33.81418 | -121.78406 | 34085 ft | 418 kts | 246° |
| 2026-04-21 22:41 | 33.78840 | -121.84698 | 34081 ft | 418 kts | 246° |
| 2026-04-21 22:42 | 33.76264 | -121.90972 | 34086 ft | 419 kts | 246° |
| 2026-04-21 22:42 | 33.73681 | -121.97253 | 34084 ft | 419 kts | 246° |
| 2026-04-21 22:43 | 33.71111 | -122.03492 | 34084 ft | 419 kts | 246° |
| 2026-04-21 22:43 | 33.68518 | -122.09774 | 34086 ft | 420 kts | 247° |
| 2026-04-21 22:44 | 33.65915 | -122.16070 | 34057 ft | 420 kts | 247° |
| 2026-04-21 22:44 | 33.63316 | -122.22341 | 34083 ft | 419 kts | 247° |
| 2026-04-21 22:45 | 33.60717 | -122.28605 | 34088 ft | 419 kts | 247° |
| 2026-04-21 22:45 | 33.58131 | -122.34827 | 34084 ft | 419 kts | 247° |
| 2026-04-21 22:46 | 33.55524 | -122.41086 | 34091 ft | 420 kts | 247° |
| 2026-04-21 22:46 | 33.52908 | -122.47358 | 34090 ft | 420 kts | 247° |
| 2026-04-21 22:47 | 33.50289 | -122.53625 | 34091 ft | 420 kts | 247° |
| 2026-04-21 22:47 | 33.48181 | -122.58829 | 34080 ft | 410 kts | 251° |
| 2026-04-21 22:48 | 33.46533 | -122.66395 | 34090 ft | 403 kts | 258° |
| 2026-04-21 22:48 | 33.45475 | -122.71838 | 34092 ft | 404 kts | 258° |
| 2026-04-21 22:49 | 33.44165 | -122.78386 | 34092 ft | 404 kts | 258° |
| 2026-04-21 22:49 | 33.42820 | -122.84944 | 34096 ft | 405 kts | 258° |
| 2026-04-21 22:50 | 33.41465 | -122.91480 | 34086 ft | 405 kts | 258° |
| 2026-04-21 22:50 | 33.40112 | -122.97981 | 34085 ft | 405 kts | 258° |
| 2026-04-21 22:51 | 33.38737 | -123.04573 | 34106 ft | 412 kts | 258° |
| 2026-04-21 22:51 | 33.37338 | -123.11262 | 34102 ft | 418 kts | 257° |
| 2026-04-21 22:52 | 33.35920 | -123.18017 | 34093 ft | 420 kts | 258° |
| 2026-04-21 22:52 | 33.34497 | -123.24773 | 34089 ft | 413 kts | 258° |
| 2026-04-21 22:53 | 33.33082 | -123.31480 | 34095 ft | 418 kts | 258° |
| 2026-04-21 22:53 | 33.31654 | -123.38228 | 34097 ft | 423 kts | 257° |
| 2026-04-21 22:54 | 33.30203 | -123.45068 | 34102 ft | 426 kts | 257° |
| 2026-04-21 22:54 | 33.28741 | -123.51932 | 34102 ft | 426 kts | 257° |
| 2026-04-21 22:55 | 33.27274 | -123.58801 | 34097 ft | 424 kts | 257° |
| 2026-04-21 22:55 | 33.25816 | -123.65606 | 34099 ft | 421 kts | 257° |
| 2026-04-21 22:56 | 33.24367 | -123.72354 | 34109 ft | 419 kts | 257° |
| 2026-04-21 22:56 | 33.22918 | -123.79082 | 34099 ft | 418 kts | 257° |
| 2026-04-21 22:57 | 33.21466 | -123.85810 | 34096 ft | 418 kts | 257° |
| 2026-04-21 22:57 | 33.20010 | -123.92534 | 34096 ft | 418 kts | 257° |
| 2026-04-21 22:58 | 33.18548 | -123.99265 | 34092 ft | 419 kts | 258° |
| 2026-04-21 22:58 | 33.17090 | -124.05960 | 34109 ft | 420 kts | 258° |
| 2026-04-21 22:59 | 33.15615 | -124.12716 | 34111 ft | 421 kts | 258° |
| 2026-04-21 22:59 | 33.14134 | -124.19477 | 34110 ft | 421 kts | 257° |
| 2026-04-21 23:00 | 33.12644 | -124.26261 | 34096 ft | 421 kts | 258° |
| 2026-04-21 23:00 | 33.11160 | -124.32997 | 34109 ft | 421 kts | 258° |
| 2026-04-21 23:01 | 33.09669 | -124.39754 | 34112 ft | 421 kts | 258° |
| 2026-04-21 23:01 | 33.08174 | -124.46509 | 34108 ft | 421 kts | 258° |
| 2026-04-21 23:02 | 33.06675 | -124.53255 | 34105 ft | 421 kts | 258° |
| 2026-04-21 23:02 | 33.05165 | -124.60009 | 34114 ft | 421 kts | 258° |
| 2026-04-21 23:03 | 33.03653 | -124.66753 | 34113 ft | 421 kts | 258° |
| 2026-04-21 23:03 | 33.02149 | -124.73445 | 34118 ft | 421 kts | 257° |
| 2026-04-21 23:04 | 33.00633 | -124.80175 | 34113 ft | 421 kts | 258° |
| 2026-04-21 23:04 | 32.99103 | -124.86950 | 34118 ft | 421 kts | 258° |
| 2026-04-21 23:05 | 32.97585 | -124.93656 | 34120 ft | 422 kts | 258° |
| 2026-04-21 23:05 | 32.96049 | -125.00419 | 34100 ft | 422 kts | 258° |
| 2026-04-21 23:06 | 32.94522 | -125.07127 | 34111 ft | 422 kts | 258° |
| 2026-04-21 23:06 | 32.92982 | -125.13872 | 34122 ft | 423 kts | 258° |
| 2026-04-21 23:07 | 32.91435 | -125.20631 | 34122 ft | 423 kts | 258° |
| 2026-04-21 23:07 | 32.89882 | -125.27395 | 34110 ft | 423 kts | 258° |
| 2026-04-21 23:08 | 32.88333 | -125.34128 | 34128 ft | 424 kts | 258° |
| 2026-04-21 23:08 | 32.86771 | -125.40898 | 34127 ft | 424 kts | 258° |
| 2026-04-21 23:09 | 32.85206 | -125.47661 | 34130 ft | 424 kts | 258° |
| 2026-04-21 23:09 | 32.83636 | -125.54427 | 34118 ft | 424 kts | 258° |
| 2026-04-21 23:10 | 32.82062 | -125.61194 | 34130 ft | 425 kts | 258° |
| 2026-04-21 23:10 | 32.80491 | -125.67932 | 34130 ft | 426 kts | 258° |
| 2026-04-21 23:11 | 32.78904 | -125.74716 | 34126 ft | 426 kts | 258° |
| 2026-04-21 23:11 | 32.77314 | -125.81498 | 34118 ft | 426 kts | 258° |
| 2026-04-21 23:12 | 32.75715 | -125.88299 | 34133 ft | 427 kts | 258° |
| 2026-04-21 23:12 | 32.74111 | -125.95105 | 34130 ft | 428 kts | 258° |
| 2026-04-21 23:13 | 32.72502 | -126.01912 | 34133 ft | 428 kts | 258° |
| 2026-04-21 23:13 | 32.70888 | -126.08721 | 34132 ft | 428 kts | 258° |
| 2026-04-21 23:14 | 32.69270 | -126.15528 | 34128 ft | 428 kts | 258° |
| 2026-04-21 23:14 | 32.67649 | -126.22335 | 34134 ft | 428 kts | 258° |
| 2026-04-21 23:15 | 32.66037 | -126.29081 | 34129 ft | 428 kts | 258° |
| 2026-04-21 23:15 | 32.64407 | -126.35893 | 34134 ft | 429 kts | 258° |
| 2026-04-21 23:16 | 32.62769 | -126.42714 | 34136 ft | 430 kts | 258° |
| 2026-04-21 23:16 | 32.61124 | -126.49546 | 34136 ft | 431 kts | 258° |
| 2026-04-21 23:17 | 32.59475 | -126.56380 | 34129 ft | 432 kts | 258° |
| 2026-04-21 23:17 | 32.57814 | -126.63242 | 34138 ft | 433 kts | 258° |
| 2026-04-21 23:18 | 32.56149 | -126.70106 | 34142 ft | 434 kts | 258° |
| 2026-04-21 23:18 | 32.54487 | -126.76937 | 34130 ft | 434 kts | 258° |
| 2026-04-21 23:19 | 32.52807 | -126.83824 | 34142 ft | 435 kts | 258° |
| 2026-04-21 23:19 | 32.51121 | -126.90719 | 34143 ft | 436 kts | 258° |
| 2026-04-21 23:20 | 32.49438 | -126.97584 | 34146 ft | 436 kts | 258° |
| 2026-04-21 23:20 | 32.47741 | -127.04490 | 34138 ft | 437 kts | 258° |
| 2026-04-21 23:21 | 32.46039 | -127.11397 | 34146 ft | 438 kts | 258° |
| 2026-04-21 23:21 | 32.44328 | -127.18319 | 34144 ft | 438 kts | 257° |
| 2026-04-21 23:22 | 32.42611 | -127.25252 | 34132 ft | 439 kts | 257° |
| 2026-04-21 23:22 | 32.40888 | -127.32188 | 34148 ft | 439 kts | 257° |
| 2026-04-21 23:23 | 32.39169 | -127.39091 | 34148 ft | 440 kts | 257° |
| 2026-04-21 23:23 | 32.37432 | -127.46046 | 34147 ft | 441 kts | 257° |
| 2026-04-21 23:24 | 32.35690 | -127.53007 | 34146 ft | 441 kts | 257° |
| 2026-04-21 23:24 | 32.33940 | -127.59981 | 34153 ft | 442 kts | 257° |
| 2026-04-21 23:25 | 32.32193 | -127.66927 | 34148 ft | 443 kts | 257° |
| 2026-04-21 23:25 | 32.30429 | -127.73920 | 34134 ft | 444 kts | 257° |
| 2026-04-21 23:26 | 32.28656 | -127.80931 | 34155 ft | 444 kts | 257° |
| 2026-04-21 23:26 | 32.26877 | -127.87948 | 34166 ft | 445 kts | 257° |
| 2026-04-21 23:27 | 32.25105 | -127.94914 | 34146 ft | 445 kts | 257° |
| 2026-04-21 23:27 | 32.23322 | -128.01913 | 34145 ft | 444 kts | 257° |
| 2026-04-21 23:28 | 32.21537 | -128.08898 | 34148 ft | 445 kts | 257° |
| 2026-04-21 23:28 | 32.19743 | -128.15906 | 33942 ft | 446 kts | 257° |
| 2026-04-21 23:29 | 32.18843 | -128.19414 | 33793 ft | 445 kts | 257° |
| 2026-04-21 23:29 | 32.17943 | -128.22918 | 33649 ft | 447 kts | 257° |
| 2026-04-21 23:29 | 32.17038 | -128.26437 | 33531 ft | 448 kts | 257° |
| 2026-04-21 23:29 | 32.16136 | -128.29938 | 33413 ft | 449 kts | 257° |
| 2026-04-21 23:30 | 32.15225 | -128.33469 | 33288 ft | 449 kts | 257° |
| 2026-04-21 23:30 | 32.14316 | -128.36985 | 33221 ft | 445 kts | 257° |
| 2026-04-21 23:30 | 32.12520 | -128.43923 | 33166 ft | 444 kts | 257° |
| 2026-04-21 23:31 | 32.10705 | -128.50923 | 33162 ft | 446 kts | 257° |
| 2026-04-21 23:31 | 32.08895 | -128.57885 | 33157 ft | 447 kts | 257° |
| 2026-04-21 23:32 | 32.07068 | -128.64891 | 33251 ft | 446 kts | 257° |
| 2026-04-21 23:32 | 32.06158 | -128.68374 | 33621 ft | 441 kts | 257° |
| 2026-04-21 23:32 | 32.05258 | -128.71806 | 34098 ft | 436 kts | 257° |
| 2026-04-21 23:33 | 32.03458 | -128.78676 | 34157 ft | 438 kts | 257° |
| 2026-04-21 23:33 | 32.01664 | -128.85508 | 34149 ft | 435 kts | 257° |
| 2026-04-21 23:34 | 31.99884 | -128.92272 | 34148 ft | 435 kts | 256° |
| 2026-04-21 23:34 | 31.98082 | -128.99102 | 34163 ft | 436 kts | 256° |
| 2026-04-21 23:35 | 31.96276 | -129.05930 | 34163 ft | 437 kts | 256° |
| 2026-04-21 23:35 | 31.94459 | -129.12782 | 34145 ft | 439 kts | 256° |
| 2026-04-21 23:36 | 31.92646 | -129.19603 | 34160 ft | 440 kts | 256° |
| 2026-04-21 23:36 | 31.90812 | -129.26486 | 34162 ft | 441 kts | 256° |
| 2026-04-21 23:37 | 31.88969 | -129.33387 | 34175 ft | 447 kts | 256° |
| 2026-04-21 23:37 | 31.87080 | -129.40447 | 34162 ft | 454 kts | 256° |
| 2026-04-21 23:38 | 31.85492 | -129.46367 | 34159 ft | 458 kts | 256° |
| 2026-04-21 23:38 | 31.83567 | -129.53515 | 34168 ft | 459 kts | 256° |
| 2026-04-21 23:39 | 31.81322 | -129.61834 | 34157 ft | 459 kts | 255° |
| 2026-04-21 23:39 | 31.79702 | -129.67824 | 34156 ft | 459 kts | 255° |
| 2026-04-21 23:40 | 31.77767 | -129.74962 | 34161 ft | 458 kts | 255° |
| 2026-04-21 23:40 | 31.75832 | -129.82082 | 34155 ft | 457 kts | 255° |
| 2026-04-21 23:41 | 31.73906 | -129.89156 | 34163 ft | 457 kts | 255° |
| 2026-04-21 23:41 | 31.71964 | -129.96269 | 34161 ft | 457 kts | 255° |
| 2026-04-21 23:42 | 31.70019 | -130.03374 | 34158 ft | 457 kts | 255° |
| 2026-04-21 23:42 | 31.68067 | -130.10490 | 34171 ft | 458 kts | 255° |
| 2026-04-21 23:43 | 31.66110 | -130.17605 | 34170 ft | 458 kts | 255° |
| 2026-04-21 23:43 | 31.64148 | -130.24723 | 34165 ft | 458 kts | 255° |
| 2026-04-21 23:44 | 31.62182 | -130.31838 | 34164 ft | 458 kts | 255° |
| 2026-04-21 23:44 | 31.60211 | -130.38950 | 34171 ft | 459 kts | 255° |
| 2026-04-21 23:45 | 31.57241 | -130.49638 | 34159 ft | 459 kts | 255° |
| 2026-04-21 23:46 | 31.55270 | -130.56710 | 34168 ft | 460 kts | 254° |
| 2026-04-21 23:46 | 31.53277 | -130.63842 | 34170 ft | 460 kts | 254° |
| 2026-04-21 23:47 | 31.51276 | -130.70988 | 34169 ft | 461 kts | 254° |
| 2026-04-21 23:47 | 31.49270 | -130.78131 | 34170 ft | 461 kts | 254° |
| 2026-04-21 23:48 | 31.47261 | -130.85268 | 34168 ft | 461 kts | 254° |
| 2026-04-21 23:48 | 31.45263 | -130.92353 | 34160 ft | 461 kts | 254° |
| 2026-04-21 23:49 | 31.43244 | -130.99495 | 34170 ft | 461 kts | 254° |
| 2026-04-21 23:49 | 31.41219 | -131.06637 | 34168 ft | 462 kts | 254° |
| 2026-04-21 23:50 | 31.39114 | -131.14047 | 34165 ft | 462 kts | 254° |
| 2026-04-21 23:50 | 31.31262 | -131.41520 | 34161 ft | 463 kts | 253° |
| 2026-04-21 23:51 | 31.23015 | -131.70114 | 34168 ft | 465 kts | 253° |
| 2026-04-21 23:51 | 31.14656 | -131.98823 | 34167 ft | 467 kts | 252° |
| 2026-04-21 23:52 | 31.06204 | -132.27565 | 34165 ft | 468 kts | 252° |
| 2026-04-21 23:52 | 30.97729 | -132.56110 | 34178 ft | 468 kts | 251° |
| 2026-04-21 23:53 | 30.89146 | -132.84761 | 34183 ft | 468 kts | 251° |
| 2026-04-21 23:53 | 30.80490 | -133.13393 | 34190 ft | 468 kts | 251° |
| 2026-04-21 23:54 | 30.71778 | -133.41949 | 34182 ft | 467 kts | 250° |
| 2026-04-21 23:54 | 30.63057 | -133.70280 | 34180 ft | 464 kts | 250° |
| 2026-04-21 23:55 | 30.54361 | -133.98287 | 34196 ft | 462 kts | 250° |
| 2026-04-21 23:55 | 30.45560 | -134.26382 | 34191 ft | 463 kts | 250° |
| 2026-04-21 23:56 | 30.36706 | -134.54408 | 34195 ft | 463 kts | 250° |
| 2026-04-21 23:56 | 30.27806 | -134.82337 | 34187 ft | 461 kts | 250° |
| 2026-04-21 23:57 | 30.18938 | -135.09936 | 34190 ft | 460 kts | 250° |
| 2026-04-21 23:57 | 30.09926 | -135.37750 | 34190 ft | 458 kts | 250° |
| 2026-04-21 23:58 | 30.00977 | -135.65142 | 34187 ft | 459 kts | 249° |
| 2026-04-21 23:58 | 29.91881 | -135.92758 | 34202 ft | 462 kts | 249° |
| 2026-04-21 23:59 | 29.82671 | -136.20491 | 34203 ft | 464 kts | 249° |
| 2026-04-21 23:59 | 29.73365 | -136.48289 | 34201 ft | 466 kts | 249° |
| 2026-04-22 00:00 | 29.64047 | -136.75899 | 34199 ft | 466 kts | 249° |
| 2026-04-22 00:00 | 29.54651 | -137.03519 | 34188 ft | 463 kts | 249° |
| 2026-04-22 00:01 | 29.45248 | -137.30942 | 34192 ft | 461 kts | 248° |
| 2026-04-22 00:01 | 29.35803 | -137.58274 | 34200 ft | 460 kts | 248° |
| 2026-04-22 00:02 | 29.26304 | -137.85551 | 34199 ft | 461 kts | 248° |
| 2026-04-22 00:02 | 29.16726 | -138.12843 | 34196 ft | 462 kts | 248° |
| 2026-04-22 00:03 | 29.07080 | -138.40121 | 34207 ft | 462 kts | 247° |
| 2026-04-22 00:03 | 28.97335 | -138.67472 | 34205 ft | 466 kts | 247° |
| 2026-04-22 00:04 | 28.87527 | -138.94792 | 34210 ft | 468 kts | 247° |
| 2026-04-22 00:04 | 28.77588 | -139.22272 | 34201 ft | 468 kts | 247° |
| 2026-04-22 00:05 | 28.67596 | -139.49677 | 34204 ft | 468 kts | 246° |
| 2026-04-22 00:05 | 28.57518 | -139.77028 | 34194 ft | 469 kts | 247° |
| 2026-04-22 00:06 | 28.47364 | -140.04398 | 34188 ft | 472 kts | 246° |
| 2026-04-22 00:06 | 28.37134 | -140.31772 | 34199 ft | 474 kts | 246° |
| 2026-04-22 00:07 | 28.26741 | -140.59381 | 34191 ft | 476 kts | 246° |
| 2026-04-22 00:07 | 28.16251 | -140.87047 | 34202 ft | 478 kts | 246° |
| 2026-04-22 00:08 | 28.05648 | -141.14806 | 34206 ft | 479 kts | 246° |
| 2026-04-22 00:08 | 27.95002 | -141.42477 | 34184 ft | 479 kts | 246° |
| 2026-04-22 00:09 | 27.84294 | -141.70112 | 34182 ft | 481 kts | 246° |
| 2026-04-22 00:09 | 27.73453 | -141.97891 | 34197 ft | 485 kts | 246° |
| 2026-04-22 00:10 | 27.62486 | -142.25795 | 34194 ft | 488 kts | 246° |
| 2026-04-22 00:10 | 27.51445 | -142.53689 | 34187 ft | 491 kts | 247° |
| 2026-04-22 00:11 | 27.40161 | -142.81994 | 34178 ft | 494 kts | 247° |
| 2026-04-22 00:11 | 27.28791 | -143.10313 | 34174 ft | 497 kts | 247° |
| 2026-04-22 00:12 | 27.17344 | -143.38625 | 34169 ft | 500 kts | 247° |
| 2026-04-22 00:12 | 27.05817 | -143.66934 | 34177 ft | 501 kts | 247° |
| 2026-04-22 00:13 | 26.94142 | -143.95411 | 34162 ft | 503 kts | 247° |
| 2026-04-22 00:13 | 26.82373 | -144.23914 | 34171 ft | 505 kts | 247° |
| 2026-04-22 00:14 | 26.70505 | -144.52458 | 34155 ft | 506 kts | 248° |
| 2026-04-22 00:14 | 26.58594 | -144.80912 | 34153 ft | 505 kts | 248° |
| 2026-04-22 00:15 | 26.46637 | -145.09281 | 34151 ft | 504 kts | 248° |
| 2026-04-22 00:15 | 26.34650 | -145.37530 | 34135 ft | 503 kts | 248° |
| 2026-04-22 00:16 | 26.22661 | -145.65598 | 34143 ft | 505 kts | 248° |
| 2026-04-22 00:16 | 26.10466 | -145.93963 | 34144 ft | 510 kts | 249° |
| 2026-04-22 00:17 | 25.98115 | -146.22503 | 34135 ft | 513 kts | 248° |
| 2026-04-22 00:17 | 25.85688 | -146.51068 | 34144 ft | 515 kts | 249° |
| 2026-04-22 00:18 | 25.73188 | -146.79619 | 34128 ft | 519 kts | 249° |
| 2026-04-22 00:18 | 25.60473 | -147.08470 | 34139 ft | 524 kts | 249° |
| 2026-04-22 00:19 | 25.47504 | -147.37702 | 34135 ft | 529 kts | 249° |
| 2026-04-22 00:19 | 25.34454 | -147.66923 | 34106 ft | 532 kts | 249° |
| 2026-04-22 00:20 | 25.21323 | -147.96130 | 34109 ft | 531 kts | 249° |
| 2026-04-22 00:20 | 25.08140 | -148.25268 | 34088 ft | 529 kts | 249° |
| 2026-04-22 00:21 | 24.94980 | -148.54162 | 34102 ft | 526 kts | 249° |
| 2026-04-22 00:21 | 24.81837 | -148.82841 | 34084 ft | 523 kts | 249° |
| 2026-04-22 00:22 | 24.68660 | -149.11414 | 34080 ft | 523 kts | 249° |
| 2026-04-22 00:22 | 24.55440 | -149.39903 | 34079 ft | 523 kts | 249° |
| 2026-04-22 00:23 | 24.42152 | -149.68363 | 34081 ft | 524 kts | 249° |
| 2026-04-22 00:23 | 24.28858 | -149.96662 | 34078 ft | 525 kts | 249° |
| 2026-04-22 00:24 | 24.15381 | -150.25177 | 34076 ft | 526 kts | 249° |
| 2026-04-22 00:24 | 24.01895 | -150.53541 | 34068 ft | 527 kts | 248° |
| 2026-04-22 00:25 | 23.88311 | -150.81943 | 34055 ft | 527 kts | 248° |
| 2026-04-22 00:25 | 23.74679 | -151.10274 | 34061 ft | 527 kts | 248° |
| 2026-04-22 00:26 | 23.61035 | -151.38465 | 34065 ft | 526 kts | 248° |
| 2026-04-22 00:26 | 23.49605 | -151.61955 | 34048 ft | 524 kts | 248° |
| 2026-04-22 00:27 | 23.33773 | -151.94309 | 34048 ft | 524 kts | 247° |
| 2026-04-22 00:27 | 23.30915 | -152.00128 | 34056 ft | 522 kts | 247° |
| 2026-04-22 00:28 | 23.27489 | -152.07091 | 34060 ft | 521 kts | 247° |
| 2026-04-22 00:28 | 23.24066 | -152.14041 | 34060 ft | 521 kts | 247° |
| 2026-04-22 00:29 | 23.20640 | -152.20988 | 34061 ft | 521 kts | 247° |
| 2026-04-22 00:29 | 23.17213 | -152.27925 | 34056 ft | 520 kts | 247° |
| 2026-04-22 00:30 | 23.13813 | -152.34799 | 34053 ft | 519 kts | 247° |
| 2026-04-22 00:30 | 23.10405 | -152.41680 | 34062 ft | 518 kts | 247° |
| 2026-04-22 00:31 | 23.06990 | -152.48567 | 34058 ft | 517 kts | 247° |
| 2026-04-22 00:31 | 23.03577 | -152.55443 | 34045 ft | 517 kts | 247° |
| 2026-04-22 00:32 | 23.00153 | -152.62307 | 34053 ft | 516 kts | 246° |
| 2026-04-22 00:32 | 22.96724 | -152.69135 | 34060 ft | 516 kts | 246° |
| 2026-04-22 00:33 | 22.93283 | -152.75977 | 34056 ft | 516 kts | 246° |
| 2026-04-22 00:33 | 22.89841 | -152.82818 | 34045 ft | 516 kts | 246° |
| 2026-04-22 00:34 | 22.86421 | -152.89612 | 34048 ft | 516 kts | 246° |
| 2026-04-22 00:34 | 22.82974 | -152.96449 | 34061 ft | 516 kts | 246° |
| 2026-04-22 00:35 | 22.79525 | -153.03280 | 34053 ft | 516 kts | 246° |
| 2026-04-22 00:35 | 22.76067 | -153.10121 | 34052 ft | 516 kts | 246° |
| 2026-04-22 00:36 | 22.72630 | -153.16910 | 34056 ft | 516 kts | 246° |
| 2026-04-22 00:36 | 22.69176 | -153.23724 | 34041 ft | 516 kts | 246° |
| 2026-04-22 00:37 | 22.65714 | -153.30543 | 34042 ft | 516 kts | 246° |
| 2026-04-22 00:37 | 22.62253 | -153.37353 | 34046 ft | 515 kts | 246° |
| 2026-04-22 00:38 | 22.58798 | -153.44142 | 34040 ft | 515 kts | 245° |
| 2026-04-22 00:38 | 22.55358 | -153.50892 | 34050 ft | 515 kts | 245° |
| 2026-04-22 00:39 | 22.51900 | -153.57668 | 34048 ft | 514 kts | 245° |
| 2026-04-22 00:39 | 22.48425 | -153.64469 | 34049 ft | 514 kts | 245° |
| 2026-04-22 00:40 | 22.44991 | -153.71183 | 34047 ft | 514 kts | 245° |
| 2026-04-22 00:40 | 22.41529 | -153.77941 | 34034 ft | 513 kts | 245° |
| 2026-04-22 00:41 | 22.38074 | -153.84681 | 34042 ft | 510 kts | 246° |
| 2026-04-22 00:41 | 22.36685 | -153.88162 | 34034 ft | 501 kts | 259° |
| 2026-04-22 00:41 | 22.36194 | -153.91830 | 34032 ft | 489 kts | 275° |
| 2026-04-22 00:42 | 22.36542 | -153.99127 | 34048 ft | 489 kts | 276° |
| 2026-04-22 00:42 | 22.36757 | -154.06500 | 34042 ft | 493 kts | 275° |
| 2026-04-22 00:43 | 22.36905 | -154.13914 | 34046 ft | 494 kts | 275° |
| 2026-04-22 00:43 | 22.37042 | -154.21350 | 34040 ft | 494 kts | 275° |
| 2026-04-22 00:44 | 22.37184 | -154.28758 | 34038 ft | 492 kts | 275° |
| 2026-04-22 00:44 | 22.37326 | -154.36148 | 34025 ft | 491 kts | 275° |
| 2026-04-22 00:45 | 22.37465 | -154.43467 | 34039 ft | 489 kts | 275° |
| 2026-04-22 00:45 | 22.37601 | -154.50814 | 34044 ft | 488 kts | 275° |
| 2026-04-22 00:46 | 22.37733 | -154.58159 | 34043 ft | 488 kts | 275° |
| 2026-04-22 00:46 | 22.37862 | -154.65489 | 34044 ft | 488 kts | 275° |
| 2026-04-22 00:47 | 22.37987 | -154.72830 | 34047 ft | 488 kts | 275° |
| 2026-04-22 00:47 | 22.38108 | -154.80127 | 34043 ft | 489 kts | 275° |
| 2026-04-22 00:48 | 22.38227 | -154.87468 | 34038 ft | 489 kts | 275° |
| 2026-04-22 00:48 | 22.38343 | -154.94836 | 34042 ft | 489 kts | 275° |
| 2026-04-22 00:49 | 22.38454 | -155.02138 | 34039 ft | 489 kts | 274° |
| 2026-04-22 00:49 | 22.38563 | -155.09507 | 34041 ft | 488 kts | 274° |
| 2026-04-22 00:50 | 22.38669 | -155.16839 | 34035 ft | 488 kts | 274° |
| 2026-04-22 00:50 | 22.38770 | -155.24139 | 34039 ft | 487 kts | 274° |
| 2026-04-22 00:51 | 22.38869 | -155.31475 | 34036 ft | 487 kts | 274° |
| 2026-04-22 00:51 | 22.38964 | -155.38756 | 34034 ft | 487 kts | 274° |
| 2026-04-22 00:52 | 22.39056 | -155.46099 | 34042 ft | 486 kts | 274° |
| 2026-04-22 00:52 | 22.39145 | -155.53415 | 34037 ft | 487 kts | 274° |
| 2026-04-22 00:53 | 22.39230 | -155.60690 | 34036 ft | 487 kts | 274° |
| 2026-04-22 00:53 | 22.39312 | -155.68012 | 34028 ft | 483 kts | 274° |
| 2026-04-22 00:53 | 22.39349 | -155.71602 | 33752 ft | 475 kts | 274° |
| 2026-04-22 00:54 | 22.39385 | -155.75157 | 33207 ft | 470 kts | 274° |
| 2026-04-22 00:54 | 22.39422 | -155.78683 | 32704 ft | 468 kts | 274° |
| 2026-04-22 00:54 | 22.39459 | -155.82191 | 32211 ft | 466 kts | 274° |
| 2026-04-22 00:54 | 22.39494 | -155.85681 | 31728 ft | 466 kts | 274° |
| 2026-04-22 00:55 | 22.39532 | -155.89221 | 31267 ft | 475 kts | 274° |
| 2026-04-22 00:55 | 22.39568 | -155.92814 | 30786 ft | 480 kts | 273° |
| 2026-04-22 00:55 | 22.39633 | -155.99960 | 29841 ft | 475 kts | 273° |
| 2026-04-22 00:56 | 22.39663 | -156.03520 | 29307 ft | 471 kts | 273° |
| 2026-04-22 00:56 | 22.39693 | -156.07047 | 28788 ft | 468 kts | 273° |
| 2026-04-22 00:56 | 22.39723 | -156.10531 | 28267 ft | 465 kts | 273° |
| 2026-04-22 00:56 | 22.39752 | -156.14010 | 27775 ft | 462 kts | 273° |
| 2026-04-22 00:57 | 22.39780 | -156.17470 | 27269 ft | 458 kts | 272° |
| 2026-04-22 00:57 | 22.39765 | -156.20891 | 26768 ft | 452 kts | 268° |
| 2026-04-22 00:57 | 22.39107 | -156.24226 | 26268 ft | 456 kts | 252° |
| 2026-04-22 00:57 | 22.37674 | -156.27291 | 25793 ft | 459 kts | 238° |
| 2026-04-22 00:58 | 22.35636 | -156.29959 | 25359 ft | 460 kts | 231° |
| 2026-04-22 00:58 | 22.33515 | -156.32520 | 24905 ft | 457 kts | 232° |
| 2026-04-22 00:58 | 22.31454 | -156.35121 | 24456 ft | 454 kts | 233° |
| 2026-04-22 00:58 | 22.29456 | -156.37706 | 24016 ft | 452 kts | 233° |
| 2026-04-22 00:59 | 22.27456 | -156.40316 | 23572 ft | 450 kts | 233° |
| 2026-04-22 00:59 | 22.25473 | -156.42909 | 23228 ft | 444 kts | 233° |
| 2026-04-22 00:59 | 22.23523 | -156.45455 | 22938 ft | 437 kts | 233° |
| 2026-04-22 00:59 | 22.21594 | -156.47968 | 22650 ft | 434 kts | 233° |
| 2026-04-22 01:00 | 22.19659 | -156.50488 | 22375 ft | 436 kts | 233° |
| 2026-04-22 01:00 | 22.17717 | -156.53015 | 22104 ft | 438 kts | 233° |
| 2026-04-22 01:00 | 22.15772 | -156.55542 | 21827 ft | 437 kts | 233° |
| 2026-04-22 01:00 | 22.13833 | -156.58058 | 21548 ft | 435 kts | 233° |
| 2026-04-22 01:01 | 22.11905 | -156.60558 | 21277 ft | 433 kts | 233° |
| 2026-04-22 01:01 | 22.09985 | -156.63046 | 21005 ft | 431 kts | 233° |
| 2026-04-22 01:01 | 22.08070 | -156.65528 | 20744 ft | 429 kts | 233° |
| 2026-04-22 01:01 | 22.06189 | -156.67963 | 20484 ft | 427 kts | 233° |
| 2026-04-22 01:02 | 22.04293 | -156.70419 | 20223 ft | 425 kts | 233° |
| 2026-04-22 01:02 | 22.02403 | -156.72864 | 19973 ft | 424 kts | 233° |
| 2026-04-22 01:02 | 22.00520 | -156.75300 | 19713 ft | 422 kts | 233° |
| 2026-04-22 01:02 | 21.98643 | -156.77728 | 19453 ft | 421 kts | 233° |
| 2026-04-22 01:03 | 21.96769 | -156.80149 | 19200 ft | 420 kts | 233° |
| 2026-04-22 01:03 | 21.94905 | -156.82558 | 18951 ft | 418 kts | 233° |
| 2026-04-22 01:03 | 21.93043 | -156.84963 | 18703 ft | 417 kts | 233° |
| 2026-04-22 01:03 | 21.91184 | -156.87362 | 18459 ft | 416 kts | 233° |
| 2026-04-22 01:04 | 21.89331 | -156.89753 | 18191 ft | 415 kts | 233° |
| 2026-04-22 01:04 | 21.87487 | -156.92134 | 17905 ft | 414 kts | 233° |
| 2026-04-22 01:04 | 21.85665 | -156.94482 | 17627 ft | 412 kts | 233° |
| 2026-04-22 01:04 | 21.83828 | -156.96848 | 17349 ft | 411 kts | 233° |
| 2026-04-22 01:05 | 21.81997 | -156.99207 | 17070 ft | 409 kts | 233° |
| 2026-04-22 01:05 | 21.80171 | -157.01560 | 16795 ft | 408 kts | 233° |
| 2026-04-22 01:05 | 21.78354 | -157.03901 | 16529 ft | 406 kts | 233° |
| 2026-04-22 01:05 | 21.76547 | -157.06229 | 16263 ft | 404 kts | 232° |
| 2026-04-22 01:06 | 21.74746 | -157.08548 | 15990 ft | 403 kts | 232° |
| 2026-04-22 01:06 | 21.72953 | -157.10857 | 15714 ft | 401 kts | 232° |
| 2026-04-22 01:06 | 21.71189 | -157.13126 | 15455 ft | 399 kts | 232° |
| 2026-04-22 01:06 | 21.69412 | -157.15412 | 15200 ft | 397 kts | 232° |
| 2026-04-22 01:07 | 21.67643 | -157.17687 | 14943 ft | 396 kts | 232° |
| 2026-04-22 01:07 | 21.65879 | -157.19955 | 14687 ft | 394 kts | 232° |
| 2026-04-22 01:07 | 21.64119 | -157.22215 | 14430 ft | 392 kts | 232° |
| 2026-04-22 01:07 | 21.62370 | -157.24462 | 14180 ft | 390 kts | 232° |
| 2026-04-22 01:08 | 21.60646 | -157.26674 | 13921 ft | 381 kts | 232° |
| 2026-04-22 01:08 | 21.58963 | -157.28831 | 13634 ft | 371 kts | 232° |
| 2026-04-22 01:08 | 21.57326 | -157.30930 | 13343 ft | 362 kts | 232° |
| 2026-04-22 01:08 | 21.55746 | -157.32956 | 13053 ft | 354 kts | 232° |
| 2026-04-22 01:09 | 21.54184 | -157.34958 | 12769 ft | 346 kts | 232° |
| 2026-04-22 01:09 | 21.52656 | -157.36917 | 12535 ft | 338 kts | 232° |
| 2026-04-22 01:09 | 21.51148 | -157.38849 | 12404 ft | 337 kts | 232° |
| 2026-04-22 01:09 | 21.49639 | -157.40784 | 12292 ft | 338 kts | 232° |
| 2026-04-22 01:10 | 21.48131 | -157.42715 | 12162 ft | 338 kts | 232° |
| 2026-04-22 01:10 | 21.46625 | -157.44643 | 12084 ft | 336 kts | 232° |
| 2026-04-22 01:10 | 21.45126 | -157.46561 | 12033 ft | 335 kts | 231° |
| 2026-04-22 01:10 | 21.43627 | -157.48478 | 12004 ft | 336 kts | 231° |
| 2026-04-22 01:11 | 21.42121 | -157.50404 | 12002 ft | 339 kts | 231° |
| 2026-04-22 01:11 | 21.40605 | -157.52339 | 11932 ft | 337 kts | 231° |
| 2026-04-22 01:11 | 21.39112 | -157.54242 | 11671 ft | 331 kts | 231° |
| 2026-04-22 01:11 | 21.37650 | -157.56107 | 11536 ft | 320 kts | 231° |
| 2026-04-22 01:12 | 21.36245 | -157.57899 | 11459 ft | 308 kts | 231° |
| 2026-04-22 01:12 | 21.34907 | -157.59605 | 11361 ft | 297 kts | 231° |
| 2026-04-22 01:12 | 21.33597 | -157.61275 | 11238 ft | 288 kts | 231° |
| 2026-04-22 01:12 | 21.32321 | -157.62901 | 11019 ft | 283 kts | 231° |
| 2026-04-22 01:13 | 21.31058 | -157.64510 | 10731 ft | 281 kts | 231° |
| 2026-04-22 01:13 | 21.29794 | -157.66119 | 10417 ft | 280 kts | 231° |
| 2026-04-22 01:13 | 21.28540 | -157.67715 | 10116 ft | 279 kts | 231° |
| 2026-04-22 01:13 | 21.27293 | -157.69301 | 9793 ft | 278 kts | 231° |
| 2026-04-22 01:14 | 21.26064 | -157.70857 | 9481 ft | 276 kts | 230° |
| 2026-04-22 01:14 | 21.24813 | -157.72418 | 9187 ft | 275 kts | 230° |
| 2026-04-22 01:14 | 21.23564 | -157.73972 | 8864 ft | 274 kts | 230° |
| 2026-04-22 01:14 | 21.22320 | -157.75518 | 8540 ft | 274 kts | 230° |
| 2026-04-22 01:15 | 21.21076 | -157.77066 | 8204 ft | 273 kts | 230° |
| 2026-04-22 01:15 | 21.19842 | -157.78600 | 7958 ft | 270 kts | 230° |
| 2026-04-22 01:15 | 21.18622 | -157.80117 | 7734 ft | 267 kts | 230° |
| 2026-04-22 01:15 | 21.17410 | -157.81624 | 7519 ft | 267 kts | 230° |
| 2026-04-22 01:16 | 21.16197 | -157.83134 | 7291 ft | 267 kts | 230° |
| 2026-04-22 01:16 | 21.14998 | -157.84625 | 7077 ft | 268 kts | 230° |
| 2026-04-22 01:16 | 21.13779 | -157.86141 | 6863 ft | 268 kts | 230° |
| 2026-04-22 01:16 | 21.12561 | -157.87656 | 6632 ft | 269 kts | 230° |
| 2026-04-22 01:17 | 21.11341 | -157.89172 | 6412 ft | 269 kts | 230° |
| 2026-04-22 01:17 | 21.10529 | -157.90179 | 6260 ft | 269 kts | 230° |
| 2026-04-22 01:17 | 21.09308 | -157.91695 | 6017 ft | 269 kts | 230° |
| 2026-04-22 01:17 | 21.08140 | -157.93244 | 5767 ft | 263 kts | 240° |
| 2026-04-22 01:18 | 21.07678 | -157.95090 | 5547 ft | 257 kts | 272° |
| 2026-04-22 01:18 | 21.07862 | -157.96989 | 5370 ft | 259 kts | 279° |
| 2026-04-22 01:18 | 21.08214 | -157.98905 | 5162 ft | 265 kts | 284° |
| 2026-04-22 01:18 | 21.08720 | -158.00805 | 4925 ft | 265 kts | 289° |
| 2026-04-22 01:19 | 21.09368 | -158.02651 | 4720 ft | 264 kts | 293° |
| 2026-04-22 01:19 | 21.10137 | -158.04415 | 4495 ft | 262 kts | 298° |
| 2026-04-22 01:19 | 21.11028 | -158.06106 | 4268 ft | 260 kts | 302° |
| 2026-04-22 01:19 | 21.12032 | -158.07712 | 4072 ft | 258 kts | 307° |
| 2026-04-22 01:20 | 21.13129 | -158.09206 | 3847 ft | 253 kts | 311° |
| 2026-04-22 01:20 | 21.14310 | -158.10563 | 3623 ft | 243 kts | 322° |
| 2026-04-22 01:20 | 21.15808 | -158.11278 | 3424 ft | 234 kts | 354° |
| 2026-04-22 01:20 | 21.17390 | -158.11075 | 3248 ft | 228 kts | 17° |
| 2026-04-22 01:21 | 21.18858 | -158.10433 | 3057 ft | 230 kts | 36° |
| 2026-04-22 01:21 | 21.19863 | -158.09111 | 2886 ft | 230 kts | 58° |
| 2026-04-22 01:21 | 21.20741 | -158.07708 | 2705 ft | 229 kts | 53° |
| 2026-04-22 01:21 | 21.21689 | -158.06369 | 2549 ft | 221 kts | 51° |
| 2026-04-22 01:22 | 21.22615 | -158.05104 | 2367 ft | 211 kts | 51° |
| 2026-04-22 01:22 | 21.23505 | -158.03901 | 2168 ft | 201 kts | 51° |
| 2026-04-22 01:22 | 21.24322 | -158.02751 | 2067 ft | 187 kts | 52° |
| 2026-04-22 01:22 | 21.25081 | -158.01668 | 1996 ft | 175 kts | 52° |
| 2026-04-22 01:23 | 21.25789 | -158.00661 | 1979 ft | 167 kts | 52° |
| 2026-04-22 01:23 | 21.26505 | -157.99647 | 1639 ft | 170 kts | 52° |
| 2026-04-22 01:23 | 21.27199 | -157.98661 | 1400 ft | 162 kts | 52° |
| 2026-04-22 01:23 | 21.27884 | -157.97690 | 1185 ft | 166 kts | 53° |
| 2026-04-22 01:24 | 21.28592 | -157.96688 | 976 ft | 170 kts | 53° |
| 2026-04-22 01:24 | 21.29315 | -157.95663 | 735 ft | 172 kts | 54° |
| 2026-04-22 01:24 | 21.30035 | -157.94645 | 494 ft | 171 kts | 54° |
| 2026-04-22 01:24 | 21.30751 | -157.93629 | 270 ft | 171 kts | 54° |
| 2026-04-22 01:25 | 21.31461 | -157.92626 | 67 ft | 171 kts | 54° |
| 2026-04-22 01:25 | 21.32151 | -157.91642 | 29 ft | 151 kts | 52° |
| 2026-04-22 01:25 | 21.32631 | -157.90959 | 29 ft | 79 kts | 53° |
| 2026-04-22 01:25 | 21.32825 | -157.90687 | 29 ft | 19 kts | 52° |
| 2026-04-22 01:26 | 21.32941 | -157.90688 | 29 ft | 19 kts | 327° |
| 2026-04-22 01:26 | 21.33026 | -157.90766 | 29 ft | 14 kts | 302° |
| 2026-04-22 01:26 | 21.33031 | -157.90866 | 29 ft | 14 kts | 252° |
| 2026-04-22 01:26 | 21.32981 | -157.90954 | 29 ft | 14 kts | 233° |
| 2026-04-22 01:27 | 21.32922 | -157.91038 | 29 ft | 14 kts | 233° |
| 2026-04-22 01:27 | 21.32863 | -157.91121 | 29 ft | 14 kts | 232° |
| 2026-04-22 01:27 | 21.32804 | -157.91205 | 29 ft | 14 kts | 233° |
| 2026-04-22 01:27 | 21.32777 | -157.91281 | 29 ft | 11 kts | 262° |
| 2026-04-22 01:28 | 21.32774 | -157.91365 | 29 ft | 11 kts | 270° |
| 2026-04-22 01:28 | 21.32774 | -157.91452 | 29 ft | 12 kts | 270° |
| 2026-04-22 01:28 | 21.32774 | -157.91540 | 29 ft | 12 kts | 270° |
| 2026-04-22 01:28 | 21.32774 | -157.91630 | 29 ft | 12 kts | 270° |
| 2026-04-22 01:29 | 21.32774 | -157.91722 | 29 ft | 13 kts | 270° |
| 2026-04-22 01:29 | 21.32777 | -157.91810 | 29 ft | 10 kts | 283° |
| 2026-04-22 01:29 | 21.32810 | -157.91843 | 29 ft | 5 kts | 338° |
| 2026-04-22 01:29 | 21.32848 | -157.91845 | 29 ft | 6 kts | 2° |
| 2026-04-22 01:30 | 21.32894 | -157.91837 | 29 ft | 7 kts | 26° |
| 2026-04-22 01:30 | 21.32916 | -157.91799 | 29 ft | 4 kts | 65° |
| 2026-04-22 01:30 | 21.32923 | -157.91782 | 29 ft | 2 kts | 70° |
| 2026-04-22 01:30 | 21.32929 | -157.91764 | 29 ft | 3 kts | 71° |
| 2026-04-22 01:31 | 21.32931 | -157.91758 | 29 ft | 0 kts | 71° |
| 2026-04-22 01:31 | 21.32931 | -157.91757 | 29 ft | 0 kts | 71° |